createdAt,value
2023-04-27T00:02:19.624Z,8.37
2023-04-27T00:04:47.262Z,8.45
2023-04-27T00:07:16.950Z,8.44
2023-04-27T00:09:43.854Z,8.46
2023-04-27T00:12:10.791Z,8.40
2023-04-27T00:14:37.668Z,8.44
2023-04-27T00:17:04.488Z,8.46
2023-04-27T00:19:31.366Z,8.38
2023-04-27T00:22:02.469Z,8.36
2023-04-27T00:24:29.276Z,8.30
2023-04-27T00:26:56.140Z,8.34
2023-04-27T00:29:22.955Z,8.37
2023-04-27T00:31:49.987Z,8.37
2023-04-27T00:34:16.827Z,8.34
2023-04-27T00:36:43.817Z,8.30
2023-04-27T00:39:10.665Z,8.30
2023-04-27T00:41:41.779Z,8.23
2023-04-27T00:44:08.748Z,8.21
2023-04-27T00:46:36.159Z,8.27
2023-04-27T00:49:03.787Z,8.28
2023-04-27T00:51:31.273Z,8.21
2023-04-27T00:54:00.020Z,8.13
2023-04-27T00:56:26.881Z,8.13
2023-04-27T00:58:53.906Z,8.08
2023-04-27T01:01:21.043Z,8.03
2023-04-27T01:03:48.682Z,8.04
2023-04-27T01:06:16.140Z,7.98
2023-04-27T01:08:43.026Z,7.95
2023-04-27T01:11:09.836Z,7.97
2023-04-27T01:13:36.640Z,7.98
2023-04-27T01:16:03.624Z,8.04
2023-04-27T01:18:30.479Z,8.08
2023-04-27T01:20:57.541Z,8.02
2023-04-27T01:23:24.368Z,7.94
2023-04-27T01:25:53.717Z,7.94
2023-04-27T01:28:20.823Z,7.88
2023-04-27T01:30:47.700Z,7.82
2023-04-27T01:33:14.754Z,7.78
2023-04-27T01:35:41.655Z,7.75
2023-04-27T01:38:08.675Z,7.68
2023-04-27T01:40:35.684Z,7.72
2023-04-27T01:43:03.417Z,7.79
2023-04-27T01:45:30.467Z,7.73
2023-04-27T01:47:57.349Z,7.76
2023-04-27T01:50:24.208Z,7.66
2023-04-27T01:52:51.301Z,7.57
2023-04-27T01:55:18.277Z,7.51
2023-04-27T01:57:45.642Z,7.51
2023-04-27T02:00:13.383Z,7.48
2023-04-27T02:02:40.261Z,7.52
2023-04-27T02:05:07.740Z,7.51
2023-04-27T02:07:34.899Z,7.49
2023-04-27T02:10:02.188Z,7.52
2023-04-27T02:12:28.936Z,7.53
2023-04-27T02:14:55.846Z,7.57
2023-04-27T02:17:23.212Z,7.58
2023-04-27T02:19:49.960Z,7.42
2023-04-27T02:22:17.411Z,7.31
2023-04-27T02:24:44.232Z,7.43
2023-04-27T02:27:11.156Z,7.49
2023-04-27T02:29:39.346Z,7.43
2023-04-27T02:32:06.899Z,7.39
2023-04-27T02:34:33.660Z,7.39
2023-04-27T02:37:01.336Z,7.50
2023-04-27T02:39:28.185Z,7.54
2023-04-27T02:41:55.064Z,7.46
2023-04-27T02:44:21.920Z,7.43
2023-04-27T02:46:50.119Z,7.39
2023-04-27T02:49:17.214Z,7.43
2023-04-27T02:51:44.040Z,7.42
2023-04-27T02:54:11.492Z,7.35
2023-04-27T02:56:38.355Z,7.40
2023-04-27T02:59:07.088Z,7.44
2023-04-27T03:01:33.890Z,7.49
2023-04-27T03:04:00.880Z,7.54
2023-04-27T03:06:27.758Z,7.54
2023-04-27T03:08:54.524Z,7.51
2023-04-27T03:11:21.347Z,7.59
2023-04-27T03:13:48.242Z,7.61
2023-04-27T03:16:15.132Z,7.64
2023-04-27T03:18:41.983Z,7.63
2023-04-27T03:21:12.787Z,7.60
2023-04-27T03:23:40.283Z,7.63
2023-04-27T03:26:12.498Z,7.59
2023-04-27T03:28:40.368Z,7.55
2023-04-27T03:31:13.615Z,7.51
2023-04-27T03:33:42.366Z,7.47
2023-04-27T03:36:11.238Z,7.52
2023-04-27T03:38:38.580Z,7.56
2023-04-27T03:41:06.764Z,7.53
2023-04-27T03:43:33.751Z,7.45
2023-04-27T03:46:00.666Z,7.43
2023-04-27T03:48:27.460Z,7.50
2023-04-27T03:50:54.290Z,7.46
2023-04-27T03:53:21.176Z,7.40
2023-04-27T03:55:47.966Z,7.44
2023-04-27T03:58:14.709Z,7.47
2023-04-27T04:00:41.684Z,7.41
2023-04-27T04:03:08.901Z,7.42
2023-04-27T04:05:36.163Z,7.49
2023-04-27T04:08:03.894Z,7.44
2023-04-27T04:10:30.794Z,7.41
2023-04-27T04:12:57.589Z,7.40
2023-04-27T04:15:24.407Z,7.42
2023-04-27T04:17:51.437Z,7.42
2023-04-27T04:20:18.426Z,7.45
2023-04-27T04:22:45.294Z,7.45
2023-04-27T04:25:13.986Z,7.42
2023-04-27T04:27:41.328Z,7.42
2023-04-27T04:30:08.843Z,7.42
2023-04-27T04:32:38.093Z,7.39
2023-04-27T04:35:06.231Z,7.36
2023-04-27T04:37:35.440Z,7.32
2023-04-27T04:40:09.105Z,7.39
2023-04-27T04:42:37.787Z,7.44
2023-04-27T04:45:05.688Z,7.48
2023-04-27T04:47:34.078Z,7.42
2023-04-27T04:50:01.514Z,7.43
2023-04-27T04:52:28.553Z,7.38
2023-04-27T04:54:55.409Z,7.34
2023-04-27T04:57:22.353Z,7.41
2023-04-27T04:59:49.520Z,7.46
2023-04-27T05:02:16.386Z,7.50
2023-04-27T05:04:43.298Z,7.46
2023-04-27T05:07:14.540Z,7.44
2023-04-27T05:09:41.699Z,7.52
2023-04-27T05:12:08.573Z,7.61
2023-04-27T05:14:35.810Z,7.62
2023-04-27T05:17:02.741Z,7.68
2023-04-27T05:19:31.260Z,7.72
2023-04-27T05:22:01.237Z,7.69
2023-04-27T05:24:28.015Z,7.68
2023-04-27T05:26:55.066Z,7.65
2023-04-27T05:29:22.616Z,7.67
2023-04-27T05:31:49.632Z,7.72
2023-04-27T05:34:17.008Z,7.79
2023-04-27T05:36:43.833Z,8.03
2023-04-27T05:39:10.826Z,8.34
2023-04-27T05:41:37.681Z,8.36
2023-04-27T05:44:04.786Z,8.40
2023-04-27T05:46:31.915Z,8.43
2023-04-27T05:48:59.375Z,8.46
2023-04-27T05:51:28.739Z,8.45
2023-04-27T05:53:56.248Z,8.48
2023-04-27T05:56:23.262Z,8.43
2023-04-27T05:58:50.657Z,8.44
2023-04-27T06:01:18.033Z,8.51
2023-04-27T06:03:45.128Z,8.49
2023-04-27T06:06:12.657Z,8.52
2023-04-27T06:08:39.594Z,8.51
2023-04-27T06:11:06.747Z,8.49
2023-04-27T06:13:33.953Z,8.48
2023-04-27T06:16:01.815Z,8.56
2023-04-27T06:18:28.855Z,8.64
2023-04-27T06:21:02.445Z,8.76
2023-04-27T06:23:29.392Z,8.87
2023-04-27T06:25:56.361Z,9.01
2023-04-27T06:28:23.261Z,9.06
2023-04-27T06:30:50.024Z,9.13
2023-04-27T06:33:16.910Z,9.14
2023-04-27T06:35:47.444Z,9.12
2023-04-27T06:38:14.510Z,9.12
2023-04-27T06:40:41.748Z,9.12
2023-04-27T06:43:11.393Z,9.15
2023-04-27T06:45:38.244Z,9.25
2023-04-27T06:48:08.136Z,9.38
2023-04-27T06:50:35.027Z,9.49
2023-04-27T06:53:01.790Z,9.53
2023-04-27T06:55:28.607Z,9.60
2023-04-27T06:57:55.466Z,9.69
2023-04-27T07:00:22.751Z,9.76
2023-04-27T07:02:49.820Z,9.87
2023-04-27T07:05:17.099Z,10.05
2023-04-27T07:07:44.339Z,10.20
2023-04-27T07:10:12.287Z,10.25
2023-04-27T07:12:40.737Z,10.33
2023-04-27T07:15:08.514Z,10.44
2023-04-27T07:17:35.707Z,10.57
2023-04-27T07:20:05.104Z,10.73
2023-04-27T07:22:33.330Z,10.85
2023-04-27T07:25:00.532Z,10.97
2023-04-27T07:27:27.577Z,11.10
2023-04-27T07:29:54.776Z,11.17
2023-04-27T07:32:22.642Z,11.25
2023-04-27T07:34:54.130Z,11.40
2023-04-27T07:37:22.924Z,11.54
2023-04-27T07:39:51.841Z,11.63
2023-04-27T07:42:20.189Z,11.75
2023-04-27T07:44:47.304Z,11.84
2023-04-27T07:47:14.411Z,11.99
2023-04-27T07:49:41.256Z,12.15
2023-04-27T07:52:08.353Z,12.41
2023-04-27T07:54:35.682Z,12.68
2023-04-27T07:57:09.788Z,12.83
2023-04-27T07:59:36.640Z,12.93
2023-04-27T08:02:18.579Z,13.12
2023-04-27T08:04:47.331Z,13.21
2023-04-27T08:07:17.325Z,13.33
2023-04-27T08:09:51.051Z,13.56
2023-04-27T08:12:17.930Z,13.81
2023-04-27T08:14:45.099Z,14.01
2023-04-27T08:17:14.600Z,14.17
2023-04-27T08:19:41.848Z,14.35
2023-04-27T08:22:10.110Z,14.63
2023-04-27T08:24:37.391Z,14.81
2023-04-27T08:27:06.225Z,14.86
2023-04-27T08:29:33.589Z,14.95
2023-04-27T08:32:03.354Z,15.02
2023-04-27T08:34:36.987Z,15.21
2023-04-27T08:37:04.446Z,15.50
2023-04-27T08:39:31.390Z,15.74
2023-04-27T08:41:58.690Z,15.92
2023-04-27T08:44:25.838Z,15.85
2023-04-27T08:46:53.226Z,15.64
2023-04-27T08:49:21.057Z,15.67
2023-04-27T08:51:48.104Z,15.89
2023-04-27T08:54:15.030Z,15.98
2023-04-27T08:56:42.717Z,16.01
2023-04-27T08:59:16.536Z,16.11
2023-04-27T09:01:49.181Z,16.08
2023-04-27T09:04:17.902Z,16.21
2023-04-27T09:06:45.968Z,16.43
2023-04-27T09:09:23.613Z,16.61
2023-04-27T09:11:51.313Z,16.72
2023-04-27T09:14:22.251Z,16.80
2023-04-27T09:16:58.047Z,16.73
2023-04-27T09:19:30.362Z,17.06
2023-04-27T09:22:11.585Z,17.44
2023-04-27T09:24:38.868Z,17.60
2023-04-27T09:27:07.386Z,17.67
2023-04-27T09:29:38.765Z,17.79
2023-04-27T09:32:20.946Z,17.88
2023-04-27T09:34:48.189Z,18.00
2023-04-27T09:37:16.473Z,18.21
2023-04-27T09:39:44.439Z,18.38
2023-04-27T09:42:12.854Z,18.28
2023-04-27T09:44:39.766Z,18.44
2023-04-27T09:47:07.577Z,18.54
2023-04-27T09:49:35.985Z,18.59
2023-04-27T09:52:02.888Z,18.67
2023-04-27T09:54:36.161Z,18.75
2023-04-27T09:57:33.435Z,19.11
2023-04-27T10:00:16.307Z,19.38
2023-04-27T10:03:08.388Z,19.70
2023-04-27T10:06:15.754Z,20.01
2023-04-27T10:08:43.176Z,20.10
2023-04-27T10:11:19.071Z,20.11
2023-04-27T10:13:55.090Z,20.36
2023-04-27T10:16:22.727Z,20.08
2023-04-27T10:18:56.183Z,19.89
2023-04-27T10:21:23.752Z,19.64
2023-04-27T10:23:52.332Z,19.33
2023-04-27T10:26:27.838Z,19.22
2023-04-27T10:29:10.376Z,19.84
2023-04-27T10:31:45.493Z,20.31
2023-04-27T10:34:20.582Z,20.23
2023-04-27T10:36:48.192Z,20.06
2023-04-27T10:39:29.939Z,19.97
2023-04-27T10:42:00.006Z,19.87
2023-04-27T10:44:32.595Z,20.00
2023-04-27T10:47:12.092Z,19.95
2023-04-27T10:49:39.541Z,20.04
2023-04-27T10:52:06.993Z,20.23
2023-04-27T10:54:34.769Z,20.23
2023-04-27T10:57:10.851Z,20.38
2023-04-27T10:59:53.474Z,20.16
2023-04-27T11:02:29.698Z,19.95
2023-04-27T11:05:00.113Z,20.06
2023-04-27T11:07:28.945Z,20.15
2023-04-27T11:09:55.997Z,20.56
2023-04-27T11:12:23.970Z,21.07
2023-04-27T11:14:50.906Z,21.49
2023-04-27T11:17:32.247Z,21.93
2023-04-27T11:19:59.076Z,22.20
2023-04-27T11:22:26.374Z,22.22
2023-04-27T11:24:53.799Z,22.20
2023-04-27T11:27:22.406Z,21.85
2023-04-27T11:29:49.720Z,22.32
2023-04-27T11:32:24.034Z,21.98
2023-04-27T11:34:53.773Z,21.41
2023-04-27T11:37:24.297Z,21.60
2023-04-27T11:39:53.169Z,22.06
2023-04-27T11:42:28.817Z,22.08
2023-04-27T11:45:07.797Z,22.02
2023-04-27T11:47:38.047Z,21.32
2023-04-27T11:50:08.476Z,21.20
2023-04-27T11:52:38.855Z,21.48
2023-04-27T11:55:15.659Z,21.97
2023-04-27T11:57:43.285Z,22.23
2023-04-27T12:00:11.327Z,22.27
2023-04-27T12:02:39.150Z,22.47
2023-04-27T12:05:07.940Z,22.76
2023-04-27T12:07:35.094Z,22.44
2023-04-27T12:10:02.044Z,21.72
2023-04-27T12:12:28.960Z,21.91
2023-04-27T12:14:55.940Z,22.35
2023-04-27T12:17:23.440Z,22.28
2023-04-27T12:19:50.357Z,21.25
2023-04-27T12:22:17.213Z,21.19
2023-04-27T12:24:44.119Z,20.89
2023-04-27T12:27:12.097Z,20.16
2023-04-27T12:29:42.097Z,19.92
2023-04-27T12:32:09.156Z,19.90
2023-04-27T12:34:36.446Z,19.83
2023-04-27T12:37:03.580Z,20.24
2023-04-27T12:39:30.456Z,20.24
2023-04-27T12:42:00.581Z,20.75
2023-04-27T12:44:27.615Z,20.41
2023-04-27T12:46:54.679Z,20.36
2023-04-27T12:49:21.776Z,20.29
2023-04-27T12:51:52.158Z,19.93
2023-04-27T12:54:19.309Z,19.69
2023-04-27T12:56:47.091Z,19.60
2023-04-27T12:59:14.258Z,19.51
2023-04-27T13:01:41.209Z,19.43
2023-04-27T13:04:09.124Z,19.60
2023-04-27T13:06:36.322Z,20.59
2023-04-27T13:09:06.593Z,21.30
2023-04-27T13:11:33.530Z,22.14
2023-04-27T13:14:01.945Z,21.65
2023-04-27T13:16:28.867Z,20.63
2023-04-27T13:18:55.996Z,20.29
2023-04-27T13:21:23.248Z,21.49
2023-04-27T13:23:51.087Z,22.54
2023-04-27T13:26:18.167Z,22.70
2023-04-27T13:28:45.004Z,22.24
2023-04-27T13:31:12.119Z,21.27
2023-04-27T13:33:42.924Z,20.80
2023-04-27T13:36:11.666Z,20.48
2023-04-27T13:38:38.932Z,20.12
2023-04-27T13:41:06.913Z,20.34
2023-04-27T13:43:34.167Z,20.18
2023-04-27T13:46:04.510Z,19.83
2023-04-27T13:48:32.454Z,19.67
2023-04-27T13:51:02.749Z,19.58
2023-04-27T13:53:30.009Z,19.97
2023-04-27T13:55:58.345Z,20.60
2023-04-27T13:58:29.346Z,20.60
2023-04-27T14:00:56.541Z,21.52
2023-04-27T14:03:25.080Z,22.78
2023-04-27T14:05:52.096Z,23.60
2023-04-27T14:08:19.360Z,23.81
2023-04-27T14:10:46.593Z,23.25
2023-04-27T14:13:13.596Z,22.07
2023-04-27T14:15:41.366Z,21.48
2023-04-27T14:18:08.975Z,20.77
2023-04-27T14:20:37.496Z,20.14
2023-04-27T14:23:06.917Z,19.73
2023-04-27T14:25:34.981Z,19.78
2023-04-27T14:28:05.688Z,20.07
2023-04-27T14:30:33.804Z,19.92
2023-04-27T14:33:01.723Z,19.76
2023-04-27T14:35:28.740Z,19.85
2023-04-27T14:38:01.725Z,19.82
2023-04-27T14:40:30.881Z,20.52
2023-04-27T14:43:01.118Z,21.68
2023-04-27T14:45:39.825Z,21.72
2023-04-27T14:48:14.872Z,22.41
2023-04-27T14:50:41.965Z,23.18
2023-04-27T14:53:10.088Z,22.12
2023-04-27T14:55:36.905Z,21.82
2023-04-27T14:58:03.948Z,21.77
2023-04-27T15:00:31.629Z,21.20
2023-04-27T15:02:58.611Z,20.67
2023-04-27T15:05:25.581Z,20.42
2023-04-27T15:07:52.558Z,20.78
2023-04-27T15:10:19.337Z,20.71
2023-04-27T15:12:46.545Z,20.63
2023-04-27T15:15:13.866Z,20.38
2023-04-27T15:17:41.691Z,19.93
2023-04-27T15:20:08.970Z,19.70
2023-04-27T15:22:35.745Z,19.52
2023-04-27T15:25:02.647Z,19.32
2023-04-27T15:27:29.562Z,19.28
2023-04-27T15:29:59.593Z,19.19
2023-04-27T15:32:30.725Z,19.09
2023-04-27T15:34:59.427Z,19.13
2023-04-27T15:37:28.341Z,19.18
2023-04-27T15:39:59.328Z,19.07
2023-04-27T15:42:26.334Z,19.01
2023-04-27T15:44:54.339Z,19.00
2023-04-27T15:47:21.614Z,19.09
2023-04-27T15:49:56.922Z,19.11
2023-04-27T15:52:26.835Z,19.22
2023-04-27T15:54:53.715Z,19.31
2023-04-27T15:57:20.598Z,19.31
2023-04-27T15:59:52.572Z,19.26
2023-04-27T16:02:19.471Z,19.27
2023-04-27T16:04:46.593Z,19.28
2023-04-27T16:07:13.445Z,19.26
2023-04-27T16:09:40.587Z,19.19
2023-04-27T16:12:07.475Z,19.09
2023-04-27T16:14:34.327Z,18.91
2023-04-27T16:17:03.753Z,18.80
2023-04-27T16:19:30.776Z,18.66
2023-04-27T16:21:58.351Z,18.56
2023-04-27T16:24:25.881Z,18.48
2023-04-27T16:26:56.842Z,18.40
2023-04-27T16:29:23.858Z,18.31
2023-04-27T16:31:56.053Z,18.25
2023-04-27T16:34:23.001Z,18.23
2023-04-27T16:36:50.061Z,18.22
2023-04-27T16:39:19.143Z,18.14
2023-04-27T16:41:46.075Z,18.06
2023-04-27T16:44:13.913Z,18.03
2023-04-27T16:46:41.192Z,18.02
2023-04-27T16:49:10.972Z,17.94
2023-04-27T16:51:37.737Z,17.90
2023-04-27T16:54:04.538Z,17.82
2023-04-27T16:56:34.997Z,17.80
2023-04-27T16:59:02.931Z,17.78
2023-04-27T17:01:30.129Z,17.75
2023-04-27T17:03:58.928Z,17.72
2023-04-27T17:06:27.839Z,17.69
2023-04-27T17:08:56.848Z,17.66
2023-04-27T17:11:24.744Z,17.58
2023-04-27T17:13:52.488Z,17.57
2023-04-27T17:16:20.022Z,17.54
2023-04-27T17:18:49.453Z,17.49
2023-04-27T17:21:17.229Z,17.48
2023-04-27T17:23:46.592Z,17.45
2023-04-27T17:26:15.819Z,17.42
2023-04-27T17:28:42.647Z,17.41
2023-04-27T17:31:09.643Z,17.35
2023-04-27T17:33:38.001Z,17.36
2023-04-27T17:36:08.923Z,17.35
2023-04-27T17:38:36.712Z,17.33
2023-04-27T17:41:03.481Z,17.28
2023-04-27T17:43:30.286Z,17.20
2023-04-27T17:45:57.313Z,17.17
2023-04-27T17:48:24.370Z,17.16
2023-04-27T17:50:51.376Z,17.12
2023-04-27T17:53:18.371Z,17.12
2023-04-27T17:55:52.592Z,17.09
2023-04-27T17:58:19.409Z,17.05
2023-04-27T18:00:46.348Z,16.98
2023-04-27T18:03:13.458Z,16.93
2023-04-27T18:05:40.872Z,16.90
2023-04-27T18:08:11.095Z,16.84
2023-04-27T18:10:37.980Z,16.75
2023-04-27T18:13:05.086Z,16.70
2023-04-27T18:15:32.286Z,16.58
2023-04-27T18:17:59.141Z,16.49
2023-04-27T18:20:26.695Z,16.42
2023-04-27T18:22:54.749Z,16.26
2023-04-27T18:25:21.903Z,16.14
2023-04-27T18:27:55.096Z,16.05
2023-04-27T18:30:23.031Z,15.98
2023-04-27T18:32:49.907Z,15.84
2023-04-27T18:35:16.846Z,15.63
2023-04-27T18:37:48.062Z,15.56
2023-04-27T18:40:23.262Z,15.57
2023-04-27T18:42:50.653Z,15.56
2023-04-27T18:45:20.554Z,15.42
2023-04-27T18:47:47.535Z,15.24
2023-04-27T18:50:15.086Z,15.08
2023-04-27T18:52:41.915Z,14.87
2023-04-27T18:55:09.598Z,14.77
2023-04-27T18:57:37.129Z,14.64
2023-04-27T19:00:05.886Z,14.51
2023-04-27T19:02:42.629Z,14.42
2023-04-27T19:05:13.572Z,14.33
2023-04-27T19:07:40.906Z,14.31
2023-04-27T19:10:08.741Z,14.33
2023-04-27T19:12:35.813Z,14.37
2023-04-27T19:15:03.000Z,14.30
2023-04-27T19:17:30.476Z,14.27
2023-04-27T19:19:57.445Z,14.26
2023-04-27T19:22:24.823Z,14.24
2023-04-27T19:24:51.654Z,14.11
2023-04-27T19:27:18.519Z,14.11
2023-04-27T19:29:54.966Z,14.09
2023-04-27T19:32:25.206Z,14.10
2023-04-27T19:34:52.571Z,14.10
2023-04-27T19:37:19.422Z,13.91
2023-04-27T19:39:46.846Z,13.83
2023-04-27T19:42:17.354Z,13.74
2023-04-27T19:44:44.377Z,13.77
2023-04-27T19:47:11.395Z,13.71
2023-04-27T19:49:38.752Z,13.54
2023-04-27T19:52:08.495Z,13.51
2023-04-27T19:54:37.948Z,13.53
2023-04-27T19:57:04.949Z,13.49
2023-04-27T19:59:31.775Z,13.44
2023-04-27T20:01:58.673Z,13.47
2023-04-27T20:04:25.921Z,13.38
2023-04-27T20:06:52.999Z,13.27
2023-04-27T20:09:19.862Z,13.16
2023-04-27T20:11:46.657Z,13.17
2023-04-27T20:14:13.690Z,13.09
2023-04-27T20:16:40.868Z,13.02
2023-04-27T20:19:07.872Z,12.99
2023-04-27T20:21:34.764Z,12.90
2023-04-27T20:24:01.566Z,12.79
2023-04-27T20:26:28.611Z,12.76
2023-04-27T20:28:55.444Z,12.74
2023-04-27T20:31:22.348Z,12.82
2023-04-27T20:33:52.084Z,12.79
2023-04-27T20:36:23.072Z,12.81
2023-04-27T20:38:49.939Z,12.85
2023-04-27T20:41:17.176Z,12.77
2023-04-27T20:43:45.565Z,12.64
2023-04-27T20:46:12.661Z,12.65
2023-04-27T20:48:40.627Z,12.63
2023-04-27T20:51:07.656Z,12.65
2023-04-27T20:53:34.753Z,12.61
2023-04-27T20:56:02.315Z,12.76
2023-04-27T20:58:29.183Z,12.76
2023-04-27T21:00:56.267Z,12.70
2023-04-27T21:03:23.553Z,12.68
2023-04-27T21:05:53.473Z,12.81
2023-04-27T21:08:20.505Z,12.86
2023-04-27T21:10:47.336Z,12.90
2023-04-27T21:13:14.153Z,12.93
2023-04-27T21:15:40.941Z,12.84
2023-04-27T21:18:13.415Z,12.85
2023-04-27T21:20:43.178Z,12.78
2023-04-27T21:23:10.042Z,12.76
2023-04-27T21:25:40.474Z,12.79
2023-04-27T21:28:07.308Z,12.72
2023-04-27T21:30:34.208Z,12.67
2023-04-27T21:33:02.240Z,12.68
2023-04-27T21:35:32.562Z,12.71
2023-04-27T21:37:59.921Z,12.77
2023-04-27T21:40:26.743Z,12.71
2023-04-27T21:42:54.446Z,12.57
2023-04-27T21:45:21.991Z,12.50
2023-04-27T21:47:48.783Z,12.40
2023-04-27T21:50:16.688Z,12.39
2023-04-27T21:52:45.402Z,12.32
2023-04-27T21:55:12.415Z,12.36
2023-04-27T21:57:39.323Z,12.41
2023-04-27T22:00:16.039Z,12.29
2023-04-27T22:02:45.949Z,12.20
2023-04-27T22:05:12.877Z,12.12
2023-04-27T22:07:44.169Z,12.11
2023-04-27T22:10:15.050Z,12.13
2023-04-27T22:12:41.828Z,12.06
2023-04-27T22:15:09.361Z,12.05
2023-04-27T22:17:39.457Z,12.12
2023-04-27T22:20:14.392Z,12.23
2023-04-27T22:22:41.586Z,12.23
2023-04-27T22:25:10.613Z,12.26
2023-04-27T22:27:45.076Z,12.34
2023-04-27T22:30:17.015Z,12.19
2023-04-27T22:32:44.840Z,12.15
2023-04-27T22:35:24.677Z,12.11
2023-04-27T22:37:56.705Z,12.14
2023-04-27T22:40:24.422Z,12.11
2023-04-27T22:42:51.969Z,11.98
2023-04-27T22:45:18.819Z,11.80
2023-04-27T22:47:46.027Z,11.73
2023-04-27T22:50:14.085Z,11.67
2023-04-27T22:52:44.414Z,11.73
2023-04-27T22:55:12.846Z,11.82
2023-04-27T22:57:41.809Z,11.87
2023-04-27T23:00:11.151Z,11.95
2023-04-27T23:02:40.295Z,12.02
2023-04-27T23:05:08.240Z,12.08
2023-04-27T23:07:36.023Z,12.11
2023-04-27T23:10:03.433Z,12.17
2023-04-27T23:12:39.869Z,12.24
2023-04-27T23:15:07.420Z,12.21
2023-04-27T23:17:34.257Z,12.14
2023-04-27T23:20:04.008Z,12.11
2023-04-27T23:22:30.887Z,12.14
2023-04-27T23:24:57.656Z,12.17
2023-04-27T23:27:25.186Z,12.18
2023-04-27T23:29:52.536Z,12.23
2023-04-27T23:32:22.538Z,12.23
2023-04-27T23:34:53.557Z,12.23
2023-04-27T23:37:21.328Z,12.25
2023-04-27T23:39:48.596Z,12.26
2023-04-27T23:42:15.352Z,12.21
2023-04-27T23:44:42.598Z,12.22
2023-04-27T23:47:09.667Z,12.23
2023-04-27T23:49:36.617Z,12.27
2023-04-27T23:52:03.560Z,12.24
2023-04-27T23:54:33.554Z,12.09
2023-04-27T23:57:00.510Z,12.00
2023-04-27T23:59:27.293Z,11.99
